Time;durP1;ratioP1;P1;durP2;ratioP2;P2;SDS_P1;SDS_P2;PMS_P1;PMS_P2;Temp;Humidity;BMP_temperature;BMP_pressure;BME280_temperature;BME280_humidity;BME280_pressure;Samples;Min_cycle;Max_cycle;Signal;HPM_P1;HPM_P2
2023/01/16 00:01:58;;;;;;;6.03;0.90;;;4.50;99.90;;;3.51;100.00;96239.13;5015512;28;20547;-68
2023/01/16 00:04:26;;;;;;;7.38;1.33;;;4.50;99.90;;;3.55;100.00;96222.72;4999330;28;20101;-67
2023/01/16 00:06:53;;;;;;;9.00;1.50;;;4.40;99.90;;;3.46;100.00;96226.47;5013126;28;20056;-67
2023/01/16 00:09:21;;;;;;;10.57;1.15;;;4.40;99.90;;;3.51;100.00;96219.47;5013305;28;20042;-67
2023/01/16 00:11:48;;;;;;;7.63;0.85;;;4.30;99.90;;;3.48;100.00;96198.19;5014506;28;20432;-68
2023/01/16 00:14:15;;;;;;;5.38;0.90;;;4.30;99.90;;;3.64;100.00;96206.16;5002034;28;20125;-67
2023/01/16 00:16:41;;;;;;;8.07;1.27;;;4.30;99.90;;;3.55;100.00;96181.69;5013094;28;20057;-68
2023/01/16 00:19:08;;;;;;;4.00;0.73;;;4.20;99.90;;;3.37;100.00;96169.53;5016842;28;20049;-68
2023/01/16 00:21:35;;;;;;;7.85;1.17;;;4.20;99.90;;;3.47;100.00;96181.16;5017515;28;20058;-67
2023/01/16 00:24:06;;;;;;;5.07;0.82;;;4.20;99.90;;;3.38;100.00;96160.97;5005591;28;20045;-67
2023/01/16 00:26:33;;;;;;;9.73;1.02;;;4.10;99.90;;;3.35;100.00;96174.72;5016981;28;20061;-67
2023/01/16 00:29:01;;;;;;;5.88;0.77;;;4.10;99.90;;;3.38;100.00;96169.50;5023415;28;20412;-67
2023/01/16 00:31:28;;;;;;;5.72;0.70;;;4.10;99.90;;;3.34;100.00;96179.00;5018083;28;20045;-68
2023/01/16 00:33:56;;;;;;;7.50;0.90;;;4.10;99.90;;;3.29;100.00;96183.47;5019591;28;20107;-68
2023/01/16 00:36:23;;;;;;;12.07;1.15;;;4.10;99.90;;;3.02;100.00;96171.66;5022898;28;20050;-68
2023/01/16 00:38:50;;;;;;;5.32;0.98;;;4.00;99.90;;;3.23;100.00;96149.53;5022563;28;20468;-68
2023/01/16 00:41:17;;;;;;;8.38;0.98;;;3.80;99.90;;;2.72;100.00;96164.13;5016869;28;20726;-68
2023/01/16 00:43:44;;;;;;;6.57;1.13;;;3.70;99.90;;;2.88;100.00;96155.03;5017129;28;20063;-68
2023/01/16 00:46:11;;;;;;;10.35;1.00;;;3.50;99.90;;;2.79;100.00;96155.34;5017605;28;20052;-68
2023/01/16 00:48:38;;;;;;;6.10;0.80;;;3.50;99.90;;;2.73;100.00;96150.44;5023070;28;20056;-68
2023/01/16 00:51:05;;;;;;;5.07;0.90;;;3.40;99.90;;;2.75;100.00;96153.78;5012935;28;20054;-68
2023/01/16 00:53:32;;;;;;;9.23;1.42;;;3.50;99.90;;;2.78;100.00;96148.53;5022504;28;20073;-68
2023/01/16 00:55:59;;;;;;;8.02;1.15;;;3.50;99.90;;;2.82;100.00;96129.59;5013930;28;20050;-68
2023/01/16 00:58:26;;;;;;;6.45;0.70;;;3.50;99.90;;;2.83;100.00;96128.72;5017565;28;20511;-68
2023/01/16 01:00:53;;;;;;;3.65;0.80;;;3.50;99.90;;;2.87;100.00;96117.50;5015805;28;20065;-68
2023/01/16 01:03:20;;;;;;;8.68;1.00;;;3.50;99.90;;;2.77;100.00;96105.88;5014044;28;20050;-68
2023/01/16 01:05:47;;;;;;;6.07;1.00;;;3.60;99.90;;;2.87;100.00;96096.97;5014269;28;20053;-68
2023/01/16 01:08:14;;;;;;;6.90;0.88;;;3.60;99.90;;;2.84;100.00;96091.13;5018303;28;20446;-68
2023/01/16 01:10:41;;;;;;;8.50;1.05;;;3.50;99.90;;;2.87;100.00;96083.31;5025345;28;20045;-68
2023/01/16 01:13:08;;;;;;;10.77;0.98;;;3.50;99.90;;;2.93;100.00;96075.41;5015290;28;20046;-68
2023/01/16 01:15:36;;;;;;;7.97;1.00;;;3.60;99.90;;;2.93;100.00;96078.81;5015201;28;20045;-68
2023/01/16 01:18:03;;;;;;;8.93;0.90;;;3.50;99.90;;;2.94;100.00;96074.50;4999664;28;20052;-68
2023/01/16 01:20:31;;;;;;;7.65;1.58;;;3.60;99.90;;;2.89;100.00;96066.97;5016530;28;20054;-68
2023/01/16 01:22:58;;;;;;;7.00;0.90;;;3.50;99.90;;;2.85;100.00;96067.16;5016971;28;20453;-68
2023/01/16 01:25:25;;;;;;;6.88;1.33;;;3.50;99.90;;;2.97;100.00;96045.38;5012095;28;20096;-68
2023/01/16 01:27:54;;;;;;;6.43;1.00;;;3.60;99.90;;;3.05;100.00;96046.75;5017610;28;20045;-68
2023/01/16 01:30:21;;;;;;;7.65;0.82;;;3.50;99.90;;;2.97;100.00;96035.97;5015166;28;20144;-68
2023/01/16 01:32:48;;;;;;;5.53;1.20;;;3.50;99.90;;;2.95;100.00;96044.59;5017036;28;20049;-68
2023/01/16 01:35:17;;;;;;;6.32;1.05;;;3.50;99.90;;;3.09;100.00;96052.63;5017755;28;20567;-68
2023/01/16 01:37:44;;;;;;;4.57;1.23;;;3.60;99.90;;;2.98;100.00;96044.47;5014207;28;20174;-68
2023/01/16 01:40:11;;;;;;;7.65;0.80;;;3.60;99.90;;;2.99;100.00;96041.88;5015753;28;20058;-68
2023/01/16 01:42:43;;;;;;;8.05;1.23;;;3.60;99.90;;;2.99;100.00;96021.38;5023608;28;20050;-68
2023/01/16 01:45:19;;;;;;;7.20;0.65;;;3.60;99.90;;;3.07;100.00;96016.78;5015912;28;20128;-68
2023/01/16 01:48:12;;;;;;;7.65;1.15;;;3.70;99.90;;;3.09;100.00;96021.84;5014920;28;20462;-68
2023/01/16 01:51:24;;;;;;;5.63;0.90;;;3.70;99.90;;;3.05;100.00;96008.31;5015044;28;20072;-68
2023/01/16 01:53:56;;;;;;;6.80;0.80;;;3.70;99.90;;;3.10;100.00;96008.13;4941967;28;20047;-68
2023/01/16 01:56:35;;;;;;;4.22;0.85;;;3.80;99.90;;;3.10;100.00;95993.59;4957522;28;20048;-68
2023/01/16 01:59:10;;;;;;;5.45;0.80;;;3.80;99.90;;;3.04;100.00;96005.81;4993058;28;20049;-68
2023/01/16 02:01:37;;;;;;;3.35;0.85;;;3.80;99.90;;;3.06;100.00;95979.22;5019894;28;20079;-68
2023/01/16 02:04:17;;;;;;;7.13;1.00;;;3.90;99.90;;;3.11;100.00;95967.06;5021310;28;20046;-68
2023/01/16 02:06:52;;;;;;;6.70;0.93;;;3.80;99.90;;;3.14;100.00;95966.09;5013659;28;20049;-67
2023/01/16 02:09:21;;;;;;;6.35;1.00;;;3.90;99.90;;;3.14;100.00;95959.25;5020219;28;20505;-67
2023/01/16 02:12:00;;;;;;;7.78;1.23;;;3.90;99.90;;;3.18;100.00;95949.72;5016746;28;20038;-68
2023/01/16 02:14:31;;;;;;;4.45;0.63;;;3.80;99.90;;;3.16;100.00;95942.97;5014954;28;20050;-68
2023/01/16 02:20:13;;;;;;;4.50;0.82;;;3.80;99.90;;;3.20;100.00;95916.31;5029964;28;20050;-67
2023/01/16 02:23:07;;;;;;;10.02;0.90;;;3.90;99.90;;;3.28;100.00;95915.09;5015207;28;20042;-67
2023/01/16 02:26:04;;;;;;;6.85;0.80;;;3.90;99.90;;;3.14;100.00;95910.53;5017111;28;20085;-67
2023/01/16 02:29:37;;;;;;;6.75;1.00;;;3.90;99.90;;;3.14;100.00;95890.03;5016129;28;20053;-68
2023/01/16 02:33:01;;;;;;;3.35;0.70;;;3.90;99.90;;;3.15;100.00;95872.94;4972965;28;20046;-68
2023/01/16 02:35:59;;;;;;;5.07;0.73;;;3.90;99.90;;;3.24;100.00;95862.31;5018141;28;20067;-67
2023/01/16 02:38:35;;;;;;;3.67;0.65;;;3.90;99.90;;;3.10;100.00;95857.75;5012459;28;20061;-68
2023/01/16 02:41:41;;;;;;;5.10;0.80;;;3.90;99.90;;;3.16;100.00;95859.19;5015477;28;20058;-67
2023/01/16 02:44:29;;;;;;;6.28;0.80;;;3.90;99.90;;;3.34;100.00;95840.50;5020201;28;20050;-67
2023/01/16 02:47:10;;;;;;;5.43;1.00;;;4.00;99.90;;;3.23;100.00;95824.72;5016802;28;20045;-67
2023/01/16 02:50:02;;;;;;;4.03;0.60;;;3.90;99.90;;;3.37;100.00;95829.25;5013936;28;20045;-67
2023/01/16 02:53:13;;;;;;;3.58;0.80;;;3.90;99.90;;;3.25;100.00;95815.22;5017712;28;20202;-67
2023/01/16 02:55:54;;;;;;;4.38;1.05;;;4.00;99.90;;;3.24;100.00;95813.59;4936340;28;20921;-67
2023/01/16 02:58:22;;;;;;;6.53;0.80;;;4.00;99.90;;;3.28;100.00;95797.16;5012971;28;20062;-67
2023/01/16 03:00:52;;;;;;;6.22;0.98;;;4.00;99.90;;;3.17;100.00;95803.63;5019348;28;20104;-67
2023/01/16 03:03:55;;;;;;;4.93;0.70;;;4.10;99.90;;;3.24;100.00;95792.22;5012934;28;20101;-67
2023/01/16 03:07:02;;;;;;;5.30;0.80;;;4.10;99.90;;;3.23;100.00;95772.63;5013768;28;20053;-69
2023/01/16 03:09:44;;;;;;;4.43;0.75;;;4.10;99.90;;;3.26;100.00;95772.47;5003556;28;20058;-68
2023/01/16 03:12:43;;;;;;;8.63;0.68;;;4.10;99.90;;;3.23;100.00;95757.22;5016064;28;20053;-69
2023/01/16 03:15:22;;;;;;;2.38;0.60;;;4.10;99.90;;;3.17;100.00;95778.84;5013482;28;20057;-69
2023/01/16 03:18:11;;;;;;;4.28;1.00;;;4.20;99.90;;;3.31;100.00;95739.78;5019679;28;20104;-68
2023/01/16 03:20:51;;;;;;;5.93;0.80;;;4.10;99.90;;;3.40;100.00;95723.16;5014156;28;20045;-69
2023/01/16 03:23:54;;;;;;;2.83;0.70;;;4.10;99.90;;;3.34;100.00;95708.88;5015382;28;20064;-69
2023/01/16 03:26:27;;;;;;;;;;;4.10;99.90;;;3.24;100.00;95698.19;5012964;28;20046;-69
2023/01/16 03:29:29;;;;;;;5.00;1.00;;;4.10;99.90;;;3.23;100.00;95696.53;5013899;28;19921;-68
2023/01/16 03:32:31;;;;;;;7.57;1.02;;;4.10;99.90;;;3.23;100.00;95685.44;5011788;28;20722;-68
2023/01/16 03:35:15;;;;;;;6.70;0.70;;;4.20;99.90;;;3.37;100.00;95698.47;5005815;28;20508;-68
2023/01/16 03:38:01;;;;;;;5.45;0.95;;;4.20;99.90;;;3.37;100.00;95701.03;5014197;28;20163;-68
2023/01/16 03:40:35;;;;;;;9.45;1.05;;;4.10;99.90;;;3.26;100.00;95672.47;5022101;28;20421;-69
2023/01/16 03:43:10;;;;;;;5.40;0.73;;;4.20;99.90;;;3.34;100.00;95662.72;5015135;28;20046;-68
2023/01/16 03:46:15;;;;;;;6.43;0.57;;;4.10;99.90;;;3.26;100.00;95682.72;5022235;28;20067;-69
2023/01/16 03:49:12;;;;;;;6.60;1.05;;;4.10;99.90;;;3.22;100.00;95681.22;5023652;28;20046;-68
2023/01/16 03:51:46;;;;;;;2.65;0.60;;;4.20;99.90;;;3.34;100.00;95665.28;5016984;28;20508;-68
2023/01/16 03:54:43;;;;;;;5.38;0.70;;;4.20;99.90;;;3.22;100.00;95661.53;5026967;28;20531;-69
2023/01/16 03:57:17;;;;;;;2.88;0.73;;;4.20;99.90;;;3.39;100.00;95637.69;5018541;28;20046;-68
2023/01/16 03:59:45;;;;;;;3.97;0.68;;;4.20;99.90;;;3.24;100.00;95638.38;5017042;28;20068;-68
2023/01/16 04:02:21;;;;;;;8.57;0.88;;;4.10;99.90;;;3.40;100.00;95629.13;5018244;28;20045;-67
2023/01/16 04:04:58;;;;;;;8.30;0.80;;;4.10;99.90;;;3.42;100.00;95606.81;5021796;28;20086;-67
2023/01/16 04:07:37;;;;;;;6.85;1.20;;;4.10;99.90;;;3.47;100.00;95607.41;5019725;28;20049;-67
2023/01/16 04:10:11;;;;;;;5.38;1.00;;;4.10;99.90;;;3.56;100.00;95604.41;5015943;28;20057;-68
2023/01/16 04:12:54;;;;;;;4.18;0.80;;;4.10;99.90;;;3.53;100.00;95589.16;5019759;28;20054;-66
2023/01/16 04:15:23;;;;;;;2.80;0.40;;;4.20;99.90;;;3.53;100.00;95566.06;5014791;28;20045;-67
2023/01/16 04:17:51;;;;;;;2.08;0.80;;;4.20;99.90;;;3.67;100.00;95567.16;5023806;28;20073;-66
2023/01/16 04:20:19;;;;;;;6.60;1.30;;;4.10;99.90;;;3.56;100.00;95555.69;5014895;28;20054;-67
2023/01/16 04:22:50;;;;;;;5.50;0.73;;;4.10;99.90;;;3.46;100.00;95549.31;5015700;28;20504;-67
2023/01/16 04:25:18;;;;;;;6.10;0.90;;;4.10;99.90;;;3.31;100.00;95538.03;5018335;28;20128;-66
2023/01/16 04:27:46;;;;;;;5.07;0.82;;;4.10;99.90;;;3.45;100.00;95537.41;5018470;28;20428;-67
2023/01/16 04:30:15;;;;;;;4.38;0.85;;;4.00;99.90;;;3.27;100.00;95528.84;5024041;28;20068;-67
2023/01/16 04:32:43;;;;;;;4.88;0.93;;;4.00;99.90;;;3.22;100.00;95535.91;5024576;28;20512;-67
2023/01/16 04:35:11;;;;;;;5.80;0.80;;;4.10;99.90;;;3.38;100.00;95524.94;5015307;28;20056;-67
2023/01/16 04:37:38;;;;;;;2.88;0.70;;;4.10;99.90;;;3.33;100.00;95515.72;5021496;28;20172;-67
2023/01/16 04:40:08;;;;;;;2.95;0.73;;;4.10;99.90;;;3.39;100.00;95504.34;5016999;28;20089;-67
2023/01/16 04:42:35;;;;;;;4.18;0.63;;;4.10;99.90;;;3.31;100.00;95504.72;5024249;28;20073;-67
2023/01/16 04:45:03;;;;;;;3.80;0.60;;;4.10;99.90;;;3.30;100.00;95487.66;4999755;28;20690;-66
2023/01/16 04:47:30;;;;;;;5.45;0.90;;;4.10;99.90;;;3.24;100.00;95479.41;5014244;28;20374;-67
2023/01/16 04:49:57;;;;;;;4.18;1.10;;;4.00;99.90;;;3.14;100.00;95461.91;5020953;28;20056;-67
2023/01/16 04:52:24;;;;;;;6.50;0.60;;;4.00;99.90;;;3.12;100.00;95453.50;5006539;28;20050;-67
2023/01/16 04:54:51;;;;;;;6.55;1.00;;;3.80;99.90;;;3.20;100.00;95442.84;5019485;28;20084;-67
2023/01/16 04:57:18;;;;;;;12.63;1.00;;;3.70;99.90;;;3.08;100.00;95434.03;5017937;28;20046;-67
2023/01/16 04:59:45;;;;;;;3.10;0.50;;;3.60;99.90;;;2.90;100.00;95429.75;5021107;28;20052;-67
2023/01/16 05:02:12;;;;;;;5.10;0.63;;;3.60;99.90;;;2.80;100.00;95429.34;5014935;28;20049;-67
2023/01/16 05:04:40;;;;;;;2.60;0.70;;;3.50;99.90;;;2.85;100.00;95406.06;5017696;28;20045;-67
2023/01/16 05:07:07;;;;;;;5.97;0.90;;;3.50;99.90;;;2.73;100.00;95400.59;5017259;28;20132;-67
2023/01/16 05:09:34;;;;;;;3.42;0.70;;;3.50;99.90;;;2.85;100.00;95388.97;5017087;28;20050;-67
2023/01/16 05:12:01;;;;;;;2.95;0.70;;;3.40;99.90;;;2.77;100.00;95383.38;5016983;28;20562;-67
2023/01/16 05:14:29;;;;;;;5.10;0.60;;;3.30;99.90;;;2.60;100.00;95394.41;5018219;28;20061;-66
2023/01/16 05:16:56;;;;;;;5.43;0.70;;;3.30;99.90;;;2.63;100.00;95376.34;5015465;28;20055;-67
2023/01/16 05:19:23;;;;;;;2.30;0.60;;;3.30;99.90;;;2.69;100.00;95373.50;5027561;28;20198;-67
2023/01/16 05:21:50;;;;;;;5.15;0.75;;;3.30;99.90;;;2.63;100.00;95363.53;5020364;28;20059;-67
2023/01/16 05:24:17;;;;;;;3.60;0.75;;;3.30;99.90;;;2.51;100.00;95359.00;5016490;28;20927;-67
2023/01/16 05:26:44;;;;;;;3.28;0.73;;;3.30;99.90;;;2.44;100.00;95353.31;5013147;28;20084;-67
2023/01/16 05:29:11;;;;;;;7.68;1.10;;;3.30;99.90;;;2.53;100.00;95326.44;5018581;28;20513;-67
2023/01/16 05:31:38;;;;;;;2.90;0.65;;;3.20;99.90;;;2.53;100.00;95321.31;5013552;28;20045;-67
2023/01/16 05:34:05;;;;;;;6.28;0.90;;;3.20;99.90;;;2.78;100.00;95307.34;5012352;28;20060;-67
2023/01/16 05:36:32;;;;;;;4.35;0.73;;;3.20;99.90;;;2.67;100.00;95300.19;5016223;28;20041;-67
2023/01/16 05:38:59;;;;;;;4.45;0.95;;;3.20;99.90;;;2.51;100.00;95289.84;5017905;28;20060;-67
2023/01/16 05:41:26;;;;;;;5.63;0.75;;;3.20;99.90;;;2.47;100.00;95289.16;5015869;28;20160;-67
2023/01/16 05:43:53;;;;;;;5.85;1.20;;;3.20;99.90;;;2.48;100.00;95272.88;5017069;28;20128;-67
2023/01/16 05:46:20;;;;;;;3.45;0.70;;;3.20;99.90;;;2.55;100.00;95277.72;5014929;28;20063;-67
2023/01/16 05:48:47;;;;;;;5.57;0.82;;;3.20;99.90;;;2.53;100.00;95256.47;5023879;28;20071;-67
2023/01/16 05:51:15;;;;;;;6.22;0.80;;;3.10;99.90;;;2.44;100.00;95250.91;5015050;28;20060;-67
2023/01/16 05:53:42;;;;;;;3.25;0.80;;;3.10;99.90;;;2.52;100.00;95242.84;5015087;28;20054;-67
2023/01/16 05:56:11;;;;;;;3.53;0.80;;;3.10;99.90;;;2.47;100.00;95235.38;5014962;28;20498;-67
2023/01/16 05:58:38;;;;;;;2.70;0.60;;;3.00;99.90;;;2.36;100.00;95237.63;5018621;28;20061;-67
2023/01/16 06:01:05;;;;;;;3.13;0.60;;;3.00;99.90;;;2.43;100.00;95223.63;5006526;28;20614;-67
2023/01/16 06:03:32;;;;;;;5.60;0.90;;;3.10;99.90;;;2.43;100.00;95230.50;5013386;28;20057;-67
2023/01/16 06:06:00;;;;;;;6.65;1.17;;;3.10;99.90;;;2.43;100.00;95212.56;5030507;28;20073;-67
2023/01/16 06:08:27;;;;;;;3.42;0.57;;;3.00;99.90;;;2.43;100.00;95212.56;5013242;28;20060;-67
2023/01/16 06:10:57;;;;;;;3.65;0.70;;;3.00;99.90;;;2.38;100.00;95215.34;5013091;28;20046;-67
2023/01/16 06:13:23;;;;;;;3.17;0.60;;;3.00;99.90;;;2.45;100.00;95203.09;5016929;28;20046;-67
2023/01/16 06:15:50;;;;;;;6.20;0.70;;;3.00;99.90;;;2.36;100.00;95190.72;5018683;28;20061;-67
2023/01/16 06:18:17;;;;;;;3.30;0.55;;;3.00;99.90;;;2.40;100.00;95185.38;5013792;28;20057;-67
2023/01/16 06:20:44;;;;;;;1.75;0.50;;;3.00;99.90;;;2.21;100.00;95175.22;5019767;28;20446;-67
2023/01/16 06:23:11;;;;;;;2.42;0.70;;;2.90;99.90;;;2.25;100.00;95170.75;5013674;28;20053;-67
2023/01/16 06:25:38;;;;;;;5.13;0.82;;;2.90;99.90;;;2.22;100.00;95164.06;5014969;28;20057;-67
2023/01/16 06:28:05;;;;;;;2.28;0.63;;;2.90;99.90;;;2.22;100.00;95163.25;5019523;28;20061;-67
2023/01/16 06:30:32;;;;;;;3.85;0.60;;;2.80;99.90;;;2.15;100.00;95177.25;5010772;28;20045;-67
2023/01/16 06:32:59;;;;;;;6.15;1.08;;;2.80;99.90;;;2.04;100.00;95165.78;5012528;28;20133;-67
2023/01/16 06:35:26;;;;;;;6.10;1.05;;;2.80;99.90;;;1.99;100.00;95160.06;5020353;28;20141;-67
2023/01/16 06:37:53;;;;;;;6.63;0.95;;;2.90;99.90;;;2.02;100.00;95151.41;5013466;28;20414;-67
2023/01/16 06:40:20;;;;;;;6.80;0.98;;;2.90;99.90;;;2.10;100.00;95151.88;5013764;28;20117;-67
2023/01/16 06:42:47;;;;;;;3.67;0.60;;;2.90;99.90;;;2.23;100.00;95136.72;5014131;28;20108;-67
2023/01/16 06:45:14;;;;;;;4.47;1.15;;;2.90;99.90;;;2.24;100.00;95125.59;5012106;28;20519;-67
2023/01/16 06:47:41;;;;;;;1.80;0.45;;;2.80;99.90;;;2.25;100.00;95107.59;5009104;28;20046;-67
2023/01/16 06:50:09;;;;;;;4.60;0.75;;;2.80;99.90;;;2.20;100.00;95096.75;5016660;28;20050;-67
2023/01/16 06:52:37;;;;;;;2.90;0.80;;;2.80;99.90;;;2.12;100.00;95100.59;5013310;28;20537;-67
2023/01/16 06:55:05;;;;;;;3.83;0.73;;;2.90;99.90;;;2.15;100.00;95092.78;5028017;28;20553;-67
2023/01/16 06:57:36;;;;;;;7.15;0.88;;;2.90;99.90;;;2.23;100.00;95081.25;5016565;28;20054;-67
2023/01/16 07:00:04;;;;;;;3.67;0.90;;;2.90;99.90;;;2.27;100.00;95071.69;5016752;28;20050;-67
2023/01/16 07:02:31;;;;;;;5.60;0.60;;;2.90;99.90;;;2.25;100.00;95069.19;5018064;28;20104;-68
2023/01/16 07:04:58;;;;;;;2.15;0.60;;;2.90;99.90;;;2.27;100.00;95067.41;5015171;28;20061;-67
2023/01/16 07:07:25;;;;;;;4.43;0.93;;;3.00;99.90;;;2.38;100.00;95048.94;5013033;28;20136;-67
2023/01/16 07:09:51;;;;;;;5.65;0.90;;;3.10;99.90;;;2.39;100.00;95057.44;5013351;28;20049;-68
2023/01/16 07:12:18;;;;;;;6.40;0.90;;;3.10;99.90;;;2.25;100.00;95046.16;5013896;28;20050;-68
2023/01/16 07:23:26;;;;;;;5.18;0.82;;;3.20;99.90;;;2.40;100.00;95028.41;5023122;28;20481;-68
2023/01/16 07:25:54;;;;;;;4.38;1.13;;;3.30;99.90;;;2.40;100.00;95033.50;5013875;28;20053;-68
2023/01/16 07:28:22;;;;;;;6.18;0.70;;;3.30;99.90;;;2.46;100.00;95021.22;5016742;28;20534;-67
2023/01/16 07:30:50;;;;;;;3.83;0.80;;;3.30;99.90;;;2.55;100.00;95011.41;5020605;28;20057;-68
2023/01/16 07:33:17;;;;;;;6.97;1.05;;;3.40;99.90;;;2.53;100.00;95000.41;5021273;28;20764;-68
2023/01/16 07:35:45;;;;;;;3.38;0.68;;;3.50;99.90;;;2.70;100.00;95002.91;5027765;28;20059;-67
2023/01/16 07:38:12;;;;;;;5.15;0.80;;;3.50;99.90;;;2.87;100.00;95002.88;5017854;28;20061;-68
2023/01/16 07:40:39;;;;;;;2.83;0.57;;;3.50;99.90;;;2.89;100.00;94995.88;5017339;28;20400;-68
2023/01/16 07:43:06;;;;;;;4.07;1.10;;;3.50;99.90;;;2.75;100.00;94992.44;5019661;28;20052;-68
2023/01/16 07:45:33;;;;;;;2.58;0.68;;;3.50;99.90;;;2.83;100.00;94980.03;5033941;28;20064;-68
2023/01/16 07:48:00;;;;;;;7.45;0.70;;;3.60;99.90;;;2.82;100.00;94968.13;5018219;28;20141;-67
2023/01/16 07:50:28;;;;;;;4.80;0.82;;;3.50;99.90;;;2.80;100.00;94942.59;5021815;28;20076;-68
2023/01/16 07:52:56;;;;;;;6.35;0.95;;;3.50;99.90;;;2.47;100.00;94932.44;5027413;28;20057;-68
2023/01/16 07:55:23;;;;;;;5.00;0.63;;;3.30;99.90;;;2.32;100.00;94934.06;5020898;28;20125;-68
2023/01/16 07:57:50;;;;;;;3.47;0.70;;;3.10;99.90;;;2.11;100.00;94965.91;5028825;28;20041;-68
2023/01/16 08:00:18;;;;;;;3.17;0.70;;;3.00;99.90;;;2.15;100.00;94952.03;5017029;28;20062;-68
2023/01/16 08:02:45;;;;;;;9.98;0.90;;;3.00;99.90;;;2.19;100.00;94941.56;5023182;28;20095;-67
2023/01/16 08:05:12;;;;;;;4.07;0.60;;;2.90;99.90;;;2.22;100.00;94940.59;5011766;28;20366;-67
2023/01/16 08:07:39;;;;;;;7.50;1.00;;;2.90;99.90;;;2.16;100.00;94974.16;5019449;28;20400;-67
2023/01/16 08:10:06;;;;;;;3.10;0.70;;;2.80;99.90;;;2.08;100.00;94954.91;5017448;28;20385;-68
2023/01/16 08:12:34;;;;;;;4.82;0.70;;;2.80;99.90;;;2.10;100.00;94952.28;5013366;28;20050;-68
2023/01/16 08:15:00;;;;;;;3.97;0.85;;;2.80;99.90;;;2.21;100.00;94962.78;5027118;28;20045;-68
2023/01/16 08:17:27;;;;;;;3.42;0.80;;;2.80;99.90;;;1.99;100.00;94968.16;5020053;28;20120;-68
2023/01/16 08:19:55;;;;;;;4.07;1.00;;;2.70;99.90;;;1.93;100.00;94955.69;5019310;28;20046;-68
2023/01/16 08:22:22;;;;;;;2.85;0.80;;;2.60;99.90;;;1.79;100.00;94958.13;5015471;28;20503;-68
2023/01/16 08:24:49;;;;;;;5.13;0.85;;;2.50;99.90;;;1.78;100.00;94941.94;5015285;28;20060;-67
2023/01/16 08:27:16;;;;;;;3.55;0.80;;;2.40;99.90;;;1.80;100.00;94945.25;5025873;28;20063;-68
2023/01/16 08:29:43;;;;;;;5.25;0.90;;;2.40;99.90;;;1.85;100.00;94927.13;5019470;28;20053;-68
2023/01/16 08:32:10;;;;;;;5.18;0.90;;;2.40;99.90;;;1.97;100.00;94936.72;5025033;28;20049;-68
2023/01/16 08:34:37;;;;;;;2.40;0.82;;;2.40;99.90;;;1.90;100.00;94939.69;5018516;28;20050;-68
2023/01/16 08:37:04;;;;;;;5.75;1.00;;;2.50;99.90;;;1.86;100.00;94932.13;5019600;28;20067;-68
2023/01/16 08:39:31;;;;;;;3.70;0.80;;;2.50;99.90;;;1.89;100.00;94926.03;5025210;28;20403;-68
2023/01/16 08:53:04;;;;;;;5.28;0.70;;;2.50;99.90;;;1.98;100.00;94899.97;5026597;28;20822;-68
2023/01/16 08:55:31;;;;;;;3.90;0.60;;;2.60;99.90;;;2.05;100.00;94901.34;5019026;28;20485;-68
2023/01/16 08:57:58;;;;;;;3.05;0.55;;;2.60;99.90;;;2.12;100.00;94889.03;5020755;28;20045;-68
2023/01/16 09:00:28;;;;;;;3.50;0.63;;;2.60;99.90;;;1.99;100.00;94900.84;5014562;28;20046;-67
2023/01/16 09:02:58;;;;;;;4.00;0.77;;;2.70;99.90;;;1.99;100.00;94898.28;5016664;28;20794;-68
2023/01/16 09:05:26;;;;;;;4.88;0.82;;;2.70;99.90;;;2.02;100.00;94895.53;5018851;28;20089;-68
2023/01/16 09:07:54;;;;;;;4.28;0.60;;;2.70;99.90;;;2.01;100.00;94901.59;5017171;28;20515;-68
2023/01/16 09:10:21;;;;;;;3.78;1.17;;;2.70;99.90;;;1.99;100.00;94896.53;5018857;28;20045;-68
2023/01/16 09:15:33;;;;;;;3.65;0.70;;;2.60;99.90;;;2.15;100.00;94888.88;5016390;28;20041;-68
2023/01/16 09:18:00;;;;;;;2.42;0.75;;;2.60;99.90;;;1.98;100.00;94892.31;5014185;28;20076;-69
2023/01/16 09:20:27;;;;;;;2.80;0.70;;;2.60;99.90;;;2.06;100.00;94881.69;5015618;28;20074;-68
2023/01/16 09:23:01;;;;;;;2.28;0.50;;;2.70;99.90;;;2.16;100.00;94870.06;5019149;28;20050;-68
2023/01/16 09:25:29;;;;;;;7.30;0.70;;;2.70;99.90;;;2.19;100.00;94874.19;5019565;28;20160;-68
2023/01/16 09:27:57;;;;;;;1.98;0.60;;;2.80;99.90;;;2.27;100.00;94864.38;5013999;28;20440;-68
2023/01/16 09:30:26;;;;;;;4.05;0.70;;;2.80;99.90;;;2.44;100.00;94877.09;5011961;28;20053;-68
2023/01/16 09:32:53;;;;;;;2.20;0.60;;;2.90;99.90;;;2.55;100.00;94866.25;5011505;28;20120;-68
2023/01/16 09:35:20;;;;;;;5.25;0.90;;;2.90;99.90;;;2.65;100.00;94861.50;5009749;28;20132;-71
2023/01/16 09:37:47;;;;;;;1.52;0.50;;;3.00;99.90;;;2.67;100.00;94859.66;5015205;28;20076;-72
2023/01/16 09:40:19;;;;;;;3.83;0.60;;;3.00;99.90;;;2.69;100.00;94866.34;5016211;28;20400;-71
2023/01/16 09:45:46;;;;;;;2.53;0.60;;;3.00;99.90;;;2.63;100.00;94850.50;5017645;28;20085;-71
2023/01/16 09:48:26;;;;;;;1.33;0.50;;;3.10;99.90;;;2.71;100.00;94858.56;5018981;28;20148;-72
2023/01/16 09:50:59;;;;;;;2.63;0.80;;;3.10;99.90;;;2.62;100.00;94859.06;5029046;28;20673;-72
2023/01/16 09:59:40;;;;;;;6.32;0.85;;;3.20;99.90;;;2.87;100.00;94846.59;5018743;28;20136;-71
2023/01/16 10:02:07;;;;;;;3.35;0.70;;;3.30;99.90;;;2.76;100.00;94848.91;5014268;28;20049;-71
2023/01/16 10:04:36;;;;;;;2.30;0.60;;;3.30;99.90;;;2.93;100.00;94835.16;5014835;28;20143;-71
2023/01/16 10:07:22;;;;;;;2.55;0.55;;;3.30;99.90;;;2.95;100.00;94817.97;4999830;28;20049;-72
2023/01/16 10:10:26;;;;;;;2.90;0.60;;;3.50;99.90;;;3.01;100.00;94809.09;5011622;28;20053;-72
2023/01/16 10:13:31;;;;;;;;;;;3.60;99.90;;;2.96;100.00;94811.09;5011499;28;20045;-72
2023/01/16 10:16:37;;;;;;;1.88;0.50;;;3.70;99.90;;;3.10;100.00;94793.19;5007845;28;20481;-72
2023/01/16 10:20:03;;;;;;;2.78;0.60;;;3.70;99.90;;;3.27;100.00;94780.22;5016402;28;20115;-72
2023/01/16 10:22:55;;;;;;;1.80;0.57;;;;;;;3.24;100.00;94769.31;5006792;28;20045;-71
2023/01/16 10:25:46;;;;;;;4.78;0.60;;;4.00;99.90;;;3.34;100.00;94760.16;5011886;28;20128;-71
2023/01/16 10:28:32;;;;;;;3.72;0.80;;;4.00;99.90;;;3.45;100.00;94746.72;5021473;28;20054;-71
2023/01/16 10:31:20;;;;;;;2.00;0.60;;;4.10;99.90;;;3.49;100.00;94737.91;5015130;28;20080;-72
2023/01/16 10:34:16;;;;;;;3.83;0.70;;;4.10;99.90;;;3.45;100.00;94744.16;5016017;28;20056;-71
2023/01/16 10:36:48;;;;;;;2.67;0.80;;;4.10;99.90;;;3.47;100.00;94730.31;5020065;28;20053;-72
2023/01/16 10:39:18;;;;;;;2.38;0.70;;;4.20;99.90;;;3.54;100.00;94720.53;5020804;28;20140;-71
2023/01/16 10:50:39;;;;;;;2.75;0.50;;;4.40;99.90;;;3.71;100.00;94691.25;5019898;28;20058;-71
2023/01/16 10:53:08;;;;;;;2.72;0.60;;;4.50;99.90;;;3.82;100.00;94681.16;5013175;28;20436;-71
2023/01/16 10:55:38;;;;;;;1.98;0.60;;;;;;;3.86;100.00;94663.84;5025787;28;20064;-71
2023/01/16 10:58:36;;;;;;;3.63;0.70;;;;;;;3.91;100.00;94652.34;5023272;28;20057;-71
2023/01/16 11:01:11;;;;;;;1.10;0.57;;;;;;;4.09;100.00;94640.09;5011913;28;20042;-71
2023/01/16 11:03:42;;;;;;;2.72;0.52;;;;;;;4.16;100.00;94625.94;5012198;28;20049;-71
2023/01/16 11:06:25;;;;;;;4.22;0.80;;;;;;;4.16;100.00;94612.28;5001131;28;20231;-71
2023/01/16 11:09:05;;;;;;;2.28;0.60;;;5.00;99.90;;;4.32;100.00;94596.72;5019953;28;20052;-72
2023/01/16 11:20:35;;;;;;;2.72;0.80;;;5.00;99.90;;;4.06;100.00;94586.41;5020374;28;20062;-72
2023/01/16 11:23:19;;;;;;;2.70;0.55;;;5.00;99.90;;;4.34;100.00;94574.34;5011920;28;20395;-71
2023/01/16 11:25:49;;;;;;;5.28;1.60;;;5.10;99.90;;;4.38;100.00;94562.94;5013258;28;20132;-71
2023/01/16 11:28:23;;;;;;;2.35;0.82;;;5.10;99.90;;;4.50;100.00;94551.03;5017134;28;20049;-71
2023/01/16 11:30:55;;;;;;;10.43;2.97;;;5.10;99.90;;;4.45;100.00;94550.50;5002925;28;20108;-71
2023/01/16 11:33:27;;;;;;;2.22;1.02;;;5.10;99.90;;;4.45;100.00;94542.78;5020255;28;20045;-72
2023/01/16 11:36:01;;;;;;;1.05;0.50;;;5.10;99.90;;;4.46;100.00;94534.16;5012570;28;20126;-71
2023/01/16 11:38:33;;;;;;;3.00;0.70;;;5.10;99.90;;;4.33;100.00;94537.56;5009913;28;20057;-71
2023/01/16 11:41:03;;;;;;;4.30;0.50;;;5.10;99.90;;;4.37;100.00;94540.75;5028078;28;20049;-71
2023/01/16 11:46:49;;;;;;;1.33;0.50;;;5.10;99.90;;;4.33;100.00;94518.75;5013140;28;20057;-71
2023/01/16 11:49:23;;;;;;;2.42;0.40;;;5.10;99.90;;;4.32;100.00;94504.28;5005657;28;20064;-71